createdAt,value
2022-11-28T00:01:34.002Z,97848.50
2022-11-28T00:04:06.069Z,97849.34
2022-11-28T00:06:49.123Z,97847.53
2022-11-28T00:09:19.385Z,97853.50
2022-11-28T00:11:48.569Z,97850.19
2022-11-28T00:14:17.926Z,97845.88
2022-11-28T00:16:46.131Z,97835.59
2022-11-28T00:19:13.851Z,97849.34
2022-11-28T00:21:41.990Z,97840.72
2022-11-28T00:24:09.734Z,97844.34
2022-11-28T00:26:40.840Z,97847.69
2022-11-28T00:29:09.517Z,97853.59
2022-11-28T00:31:42.725Z,97838.00
2022-11-28T00:34:12.514Z,97832.84
2022-11-28T00:36:39.832Z,97829.41
2022-11-28T00:39:07.133Z,97833.72
2022-11-28T00:41:35.241Z,97837.25
2022-11-28T00:44:02.060Z,97833.09
2022-11-28T00:46:28.961Z,97827.13
2022-11-28T00:48:57.803Z,97828.03
2022-11-28T00:51:29.318Z,97813.44
2022-11-28T00:53:58.485Z,97812.75
2022-11-28T00:56:29.812Z,97799.22
2022-11-28T00:58:58.468Z,97810.47
2022-11-28T01:01:33.007Z,97788.22
2022-11-28T01:04:03.581Z,97787.47
2022-11-28T01:06:37.719Z,97782.41
2022-11-28T01:09:13.753Z,97783.47
2022-11-28T01:11:42.778Z,97784.50
2022-11-28T01:14:11.578Z,97775.22
2022-11-28T01:16:39.269Z,97784.00
2022-11-28T01:19:07.377Z,97782.25
2022-11-28T01:21:35.403Z,97784.00
2022-11-28T01:24:02.180Z,97766.22
2022-11-28T01:26:30.733Z,97776.56
2022-11-28T01:28:59.947Z,97773.41
2022-11-28T01:31:30.096Z,97774.31
2022-11-28T01:33:57.595Z,97774.31
2022-11-28T01:36:25.055Z,97767.50
2022-11-28T01:38:52.127Z,97765.09
2022-11-28T01:41:23.854Z,97774.56
2022-11-28T01:44:00.023Z,97767.03
2022-11-28T01:46:27.925Z,97763.63
2022-11-28T01:48:59.710Z,97755.09
2022-11-28T01:51:27.642Z,97749.19
2022-11-28T01:53:55.686Z,97741.47
2022-11-28T01:56:30.850Z,97727.72
2022-11-28T01:59:04.297Z,97725.25
2022-11-28T02:01:31.494Z,97726.81
2022-11-28T02:04:00.078Z,97725.84
2022-11-28T02:06:28.273Z,97722.22
2022-11-28T02:08:56.253Z,97718.53
2022-11-28T02:11:50.077Z,97726.91
2022-11-28T02:14:48.446Z,97718.28
2022-11-28T02:18:20.918Z,97724.13
2022-11-28T02:21:27.396Z,97724.97
2022-11-28T02:24:49.808Z,97724.97
2022-11-28T02:28:02.218Z,97734.50
2022-11-28T02:30:51.476Z,97738.16
2022-11-28T02:33:27.317Z,97732.44
2022-11-28T02:36:08.747Z,97728.19
2022-11-28T02:39:09.648Z,97732.28
2022-11-28T02:42:07.071Z,97724.34
2022-11-28T02:44:58.946Z,97713.03
2022-11-28T02:47:42.394Z,97712.03
2022-11-28T02:50:22.124Z,97699.03
2022-11-28T02:52:59.060Z,97694.47
2022-11-28T02:55:27.608Z,97684.72
2022-11-28T02:57:55.627Z,97684.56
2022-11-28T03:00:39.159Z,97674.06
2022-11-28T03:03:24.358Z,97672.25
2022-11-28T03:06:06.013Z,97668.84
2022-11-28T03:08:47.699Z,97645.63
2022-11-28T03:11:35.659Z,97648.13
2022-11-28T03:14:48.616Z,97629.88
2022-11-28T03:17:27.622Z,97608.47
2022-11-28T03:20:19.291Z,97604.91
2022-11-28T03:23:50.886Z,97610.66
2022-11-28T03:26:50.453Z,97606.09
2022-11-28T03:29:48.236Z,97601.03
2022-11-28T03:32:31.660Z,97607.91
2022-11-28T03:35:17.295Z,97606.34
2022-11-28T03:38:00.096Z,97588.19
2022-11-28T03:40:36.295Z,97587.19
2022-11-28T03:43:14.792Z,97573.31
2022-11-28T03:45:49.065Z,97563.91
2022-11-28T03:48:33.820Z,97556.91
2022-11-28T03:51:12.257Z,97546.47
2022-11-28T03:53:56.250Z,97542.81
2022-11-28T03:56:48.146Z,97535.69
2022-11-28T03:59:28.354Z,97541.06
2022-11-28T04:02:14.277Z,97549.59
2022-11-28T04:05:14.004Z,97557.22
2022-11-28T04:07:49.910Z,97573.50
2022-11-28T04:10:32.481Z,97571.69
2022-11-28T04:13:32.024Z,97556.25
2022-11-28T04:16:11.093Z,97552.78
2022-11-28T04:18:55.432Z,97547.63
2022-11-28T04:21:34.045Z,97551.03
2022-11-28T04:24:10.469Z,97553.53
2022-11-28T04:26:46.734Z,97556.91
2022-11-28T04:29:19.511Z,97577.50
2022-11-28T04:31:50.711Z,97576.69
2022-11-28T04:34:21.085Z,97572.28
2022-11-28T04:36:50.182Z,97586.03
2022-11-28T04:39:23.593Z,97600.66
2022-11-28T04:41:58.693Z,97597.44
2022-11-28T04:44:40.783Z,97577.59
2022-11-28T04:47:08.083Z,97579.34
2022-11-28T04:49:34.913Z,97602.56
2022-11-28T04:52:14.525Z,97590.63
2022-11-28T04:55:17.103Z,97600.13
2022-11-28T04:57:57.272Z,97606.94
2022-11-28T05:00:25.902Z,97615.66
2022-11-28T05:02:54.984Z,97606.06
2022-11-28T05:05:25.972Z,97616.34
2022-11-28T05:07:54.145Z,97613.78
2022-11-28T05:10:21.580Z,97620.63
2022-11-28T05:12:48.404Z,97601.78
2022-11-28T05:15:19.229Z,97587.19
2022-11-28T05:17:47.026Z,97609.03
2022-11-28T05:20:14.121Z,97609.03
2022-11-28T05:22:40.992Z,97590.94
2022-11-28T05:25:08.341Z,97589.09
2022-11-28T05:27:35.814Z,97575.50
2022-11-28T05:30:03.688Z,97573.66
2022-11-28T05:32:31.249Z,97578.91
2022-11-28T05:34:58.742Z,97605.44
2022-11-28T05:37:26.566Z,97587.63
2022-11-28T05:39:53.819Z,97587.63
2022-11-28T05:42:21.051Z,97599.56
2022-11-28T05:44:48.110Z,97608.03
2022-11-28T05:47:15.847Z,97589.94
2022-11-28T05:49:43.596Z,97581.47
2022-11-28T05:52:10.602Z,97548.13
2022-11-28T05:54:37.470Z,97554.75
2022-11-28T05:57:07.161Z,97546.03
2022-11-28T05:59:34.626Z,97532.03
2022-11-28T06:02:01.528Z,97523.75
2022-11-28T06:04:28.585Z,97522.03
2022-11-28T06:06:55.405Z,97514.03
2022-11-28T06:09:25.628Z,97496.00
2022-11-28T06:11:53.112Z,97470.09
2022-11-28T06:14:20.132Z,97460.63
2022-11-28T06:16:47.017Z,97456.50
2022-11-28T06:19:13.893Z,97466.06
2022-11-28T06:21:40.960Z,97461.81
2022-11-28T06:24:09.629Z,97485.72
2022-11-28T06:26:36.807Z,97508.13
2022-11-28T06:29:04.547Z,97515.09
2022-11-28T06:31:31.700Z,97516.03
2022-11-28T06:33:59.200Z,97514.84
2022-11-28T06:36:27.026Z,97516.41
2022-11-28T06:38:54.258Z,97527.72
2022-11-28T06:41:22.997Z,97536.25
2022-11-28T06:43:50.433Z,97530.38
2022-11-28T06:46:21.017Z,97538.16
2022-11-28T06:48:50.948Z,97549.28
2022-11-28T06:51:19.103Z,97553.53
2022-11-28T06:53:46.049Z,97569.69
2022-11-28T06:56:16.892Z,97570.78
2022-11-28T06:58:45.364Z,97566.56
2022-11-28T07:01:19.434Z,97563.97
2022-11-28T07:03:47.639Z,97567.28
2022-11-28T07:06:18.516Z,97552.59
2022-11-28T07:08:46.246Z,97570.63
2022-11-28T07:11:19.579Z,97569.63
2022-11-28T07:13:47.575Z,97572.28
2022-11-28T07:16:28.206Z,97563.72
2022-11-28T07:18:57.362Z,97547.38
2022-11-28T07:21:25.641Z,97534.50
2022-11-28T07:23:53.264Z,97545.53
2022-11-28T07:26:21.812Z,97547.13
2022-11-28T07:28:49.733Z,97548.44
2022-11-28T07:31:21.687Z,97545.03
2022-11-28T07:33:51.298Z,97538.16
2022-11-28T07:36:20.919Z,97551.84
2022-11-28T07:38:50.147Z,97551.59
2022-11-28T07:41:20.421Z,97548.28
2022-11-28T07:43:53.275Z,97548.19
2022-11-28T07:46:20.426Z,97541.16
2022-11-28T07:48:48.752Z,97551.44
2022-11-28T07:51:29.539Z,97565.88
2022-11-28T07:54:04.695Z,97558.81
2022-11-28T07:57:04.472Z,97571.59
2022-11-28T07:59:22.489Z,97572.25
2022-11-28T08:01:53.166Z,97561.91
2022-11-28T08:04:20.074Z,97559.88
2022-11-28T08:06:47.000Z,97554.56
2022-11-28T08:09:13.855Z,97558.22
2022-11-28T08:11:41.301Z,97534.22
2022-11-28T08:14:08.220Z,97557.22
2022-11-28T08:16:37.036Z,97550.06
2022-11-28T08:19:04.095Z,97553.56
2022-11-28T08:21:37.745Z,97542.19
2022-11-28T08:24:06.198Z,97544.59
2022-11-28T08:26:34.065Z,97549.72
2022-11-28T08:29:02.948Z,97546.88
2022-11-28T08:31:37.045Z,97545.72
2022-11-28T08:34:08.574Z,97546.28
2022-11-28T08:36:35.465Z,97538.38
2022-11-28T08:41:57.604Z,97531.06
2022-11-28T08:44:26.093Z,97536.94
2022-11-28T08:46:54.165Z,97536.22
2022-11-28T08:49:20.967Z,97535.59
2022-11-28T08:51:47.753Z,97540.16
2022-11-28T08:54:15.065Z,97538.41
2022-11-28T08:56:41.786Z,97528.88
2022-11-28T08:59:09.493Z,97532.00
2022-11-28T09:01:36.435Z,97542.13
2022-11-28T09:04:04.607Z,97538.44
2022-11-28T09:06:31.568Z,97536.53
2022-11-28T09:08:58.783Z,97538.84
2022-11-28T09:11:25.683Z,97543.72
2022-11-28T09:13:52.551Z,97536.47
2022-11-28T09:16:19.546Z,97542.34
2022-11-28T09:21:27.785Z,97529.03
2022-11-28T09:23:56.460Z,97534.44
2022-11-28T09:26:25.342Z,97536.38
2022-11-28T09:28:53.539Z,97526.91
2022-11-28T09:31:21.098Z,97515.66
2022-11-28T09:33:49.744Z,97528.31
2022-11-28T09:36:20.315Z,97522.31
2022-11-28T09:38:47.744Z,97515.97
2022-11-28T09:41:56.324Z,97517.59
2022-11-28T09:44:42.946Z,97506.66
2022-11-28T09:47:21.591Z,97511.91
2022-11-28T09:50:20.782Z,97516.03
2022-11-28T09:52:58.405Z,97520.19
2022-11-28T09:56:00.001Z,97520.00
2022-11-28T09:58:50.100Z,97525.72
2022-11-28T10:01:32.049Z,97516.97
2022-11-28T10:04:24.018Z,97517.69
2022-11-28T10:07:08.303Z,97513.66
2022-11-28T10:09:42.663Z,97514.50
2022-11-28T10:12:53.530Z,97518.81
2022-11-28T10:15:45.874Z,97512.44
2022-11-28T10:18:40.075Z,97517.44
2022-11-28T10:21:40.914Z,97518.53
2022-11-28T10:24:17.796Z,97517.34
2022-11-28T10:26:54.390Z,97513.63
2022-11-28T10:30:16.455Z,97514.09
2022-11-28T10:32:52.256Z,97522.47
2022-11-28T10:36:22.411Z,97527.34
2022-11-28T10:38:50.073Z,97524.66
2022-11-28T10:41:38.953Z,97504.72
2022-11-28T10:44:25.806Z,97506.94
2022-11-28T10:47:16.998Z,97514.50
2022-11-28T10:50:32.499Z,97504.72
2022-11-28T10:53:18.642Z,97502.75
2022-11-28T10:56:21.252Z,97510.94
2022-11-28T10:58:54.899Z,97511.75
2022-11-28T11:01:21.922Z,97500.59
2022-11-28T11:03:49.614Z,97502.09
2022-11-28T11:06:16.458Z,97503.53
2022-11-28T11:08:47.668Z,97506.13
2022-11-28T11:11:34.741Z,97517.16
2022-11-28T11:14:08.818Z,97515.97
2022-11-28T11:16:57.275Z,97520.72
2022-11-28T11:19:35.772Z,97514.63
2022-11-28T11:22:28.517Z,97520.72
2022-11-28T11:25:06.542Z,97514.94
2022-11-28T11:27:36.647Z,97509.78
2022-11-28T11:30:23.621Z,97508.94
2022-11-28T11:32:52.996Z,97504.72
2022-11-28T11:35:25.913Z,97510.41
2022-11-28T11:38:26.902Z,97498.81
2022-11-28T11:40:53.655Z,97495.34
2022-11-28T11:43:29.324Z,97507.03
2022-11-28T11:46:12.957Z,97513.34
2022-11-28T11:48:43.465Z,97490.19
2022-11-28T11:51:32.764Z,97486.28
2022-11-28T11:54:05.284Z,97498.25
2022-11-28T11:56:39.937Z,97492.50
2022-11-28T11:59:24.634Z,97490.84
2022-11-28T12:02:00.450Z,97497.47
2022-11-28T12:04:47.268Z,97501.72
2022-11-28T12:07:58.511Z,97486.81
2022-11-28T12:10:34.304Z,97492.09
2022-11-28T12:13:02.793Z,97490.44
2022-11-28T12:15:45.603Z,97491.81
2022-11-28T12:18:46.766Z,97495.94
2022-11-28T12:21:50.816Z,97503.69
2022-11-28T12:24:48.609Z,97497.97
2022-11-28T12:28:11.574Z,97473.47
2022-11-28T12:30:56.159Z,97477.22
2022-11-28T12:33:47.736Z,97468.91
2022-11-28T12:36:38.835Z,97457.47
2022-11-28T12:39:40.632Z,97460.44
2022-11-28T12:42:25.112Z,97460.44
2022-11-28T12:45:15.905Z,97460.44
2022-11-28T12:48:30.485Z,97470.78
2022-11-28T12:51:33.670Z,97475.03
2022-11-28T12:54:30.477Z,97458.56
2022-11-28T12:57:11.077Z,97459.31
2022-11-28T13:00:08.716Z,97459.84
2022-11-28T13:02:53.415Z,97461.16
2022-11-28T13:05:38.357Z,97456.00
2022-11-28T13:08:48.759Z,97463.97
2022-11-28T13:11:56.208Z,97459.50
2022-11-28T13:14:46.050Z,97460.22
2022-11-28T13:17:46.028Z,97454.13
2022-11-28T13:20:41.974Z,97461.16
2022-11-28T13:23:34.693Z,97459.00
2022-11-28T13:26:17.929Z,97446.59
2022-11-28T13:29:25.374Z,97448.03
2022-11-28T13:32:20.798Z,97451.63
2022-11-28T13:34:49.382Z,97451.97
2022-11-28T13:40:30.499Z,97466.09
2022-11-28T13:43:08.481Z,97472.59
2022-11-28T13:45:46.948Z,97468.03
2022-11-28T13:49:05.926Z,97477.94
2022-11-28T13:51:30.863Z,97487.56
2022-11-28T13:54:17.325Z,97476.41
2022-11-28T13:57:23.767Z,97480.63
2022-11-28T14:00:05.049Z,97468.94
2022-11-28T14:02:42.052Z,97485.88
2022-11-28T14:05:26.548Z,97484.22
2022-11-28T14:07:56.131Z,97472.34
2022-11-28T14:10:49.619Z,97470.69
2022-11-28T14:13:44.980Z,97474.00
2022-11-28T14:16:35.015Z,97465.72
2022-11-28T14:19:42.017Z,97463.97
2022-11-28T14:22:59.351Z,97464.44
2022-11-28T14:25:32.218Z,97459.50
2022-11-28T14:28:06.620Z,97461.16
2022-11-28T14:30:40.433Z,97474.06
2022-11-28T14:33:22.447Z,97468.16
2022-11-28T14:35:57.800Z,97467.44
2022-11-28T14:38:30.418Z,97480.34
2022-11-28T14:43:46.571Z,97480.56
2022-11-28T14:46:16.125Z,97478.13
2022-11-28T14:49:02.956Z,97487.53
2022-11-28T14:51:48.145Z,97480.09
2022-11-28T14:54:37.254Z,97490.72
2022-11-28T14:57:18.534Z,97492.59
2022-11-28T14:59:46.848Z,97490.94
2022-11-28T15:02:13.740Z,97487.69
2022-11-28T15:04:59.380Z,97492.94
2022-11-28T15:08:04.560Z,97499.13
2022-11-28T15:11:10.802Z,97493.44
2022-11-28T15:14:14.426Z,97492.63
2022-11-28T15:16:50.548Z,97490.94
2022-11-28T15:19:27.924Z,97484.13
2022-11-28T15:21:56.280Z,97478.97
2022-11-28T15:24:35.622Z,97496.31
2022-11-28T15:27:08.450Z,97490.31
2022-11-28T15:29:36.865Z,97481.00
2022-11-28T15:32:05.338Z,97491.53
2022-11-28T15:34:35.486Z,97488.22
2022-11-28T15:37:15.197Z,97492.47
2022-11-28T15:39:46.565Z,97495.88
2022-11-28T15:42:34.952Z,97478.06
2022-11-28T15:45:25.091Z,97479.94
2022-11-28T15:47:54.220Z,97474.03
2022-11-28T15:50:29.661Z,97477.63
2022-11-28T15:53:20.738Z,97476.81
2022-11-28T15:55:47.817Z,97485.44
2022-11-28T15:58:28.579Z,97474.47
2022-11-28T16:01:15.840Z,97478.81
2022-11-28T16:03:55.215Z,97479.81
2022-11-28T16:06:26.548Z,97484.16
2022-11-28T16:09:01.245Z,97483.31
2022-11-28T16:11:31.987Z,97481.66
2022-11-28T16:14:08.360Z,97470.63
2022-11-28T16:16:38.943Z,97469.81
2022-11-28T16:19:25.779Z,97468.03
2022-11-28T16:22:06.482Z,97477.72
2022-11-28T16:24:46.397Z,97474.41
2022-11-28T16:27:29.420Z,97472.69
2022-11-28T16:29:56.627Z,97482.13
2022-11-28T16:32:39.009Z,97476.25
2022-11-28T16:35:12.326Z,97474.41
2022-11-28T16:37:39.895Z,97485.63
2022-11-28T16:40:17.001Z,97485.72
2022-11-28T16:42:53.549Z,97485.84
2022-11-28T16:45:33.443Z,97488.41
2022-11-28T16:48:09.251Z,97485.94
2022-11-28T16:50:37.594Z,97485.28
2022-11-28T16:53:05.287Z,97488.69
2022-11-28T16:55:32.397Z,97482.81
2022-11-28T16:58:13.619Z,97482.00
2022-11-28T17:00:45.968Z,97485.50
2022-11-28T17:03:44.230Z,97485.50
2022-11-28T17:06:34.348Z,97484.72
2022-11-28T17:09:02.358Z,97490.66
2022-11-28T17:11:34.240Z,97484.00
2022-11-28T17:14:02.697Z,97481.50
2022-11-28T17:16:37.067Z,97482.34
2022-11-28T17:19:04.970Z,97478.22
2022-11-28T17:21:50.726Z,97483.25
2022-11-28T17:24:23.031Z,97475.44
2022-11-28T17:26:57.296Z,97476.25
2022-11-28T17:29:29.322Z,97476.25
2022-11-28T17:31:58.789Z,97476.44
2022-11-28T17:34:30.702Z,97476.34
2022-11-28T17:37:00.034Z,97483.25
2022-11-28T17:39:28.059Z,97485.84
2022-11-28T17:41:57.193Z,97480.69
2022-11-28T17:44:37.530Z,97483.25
2022-11-28T17:47:04.737Z,97480.69
2022-11-28T17:49:32.858Z,97483.06
2022-11-28T17:52:07.422Z,97479.84
2022-11-28T17:54:35.017Z,97473.88
2022-11-28T17:57:06.921Z,97479.03
2022-11-28T17:59:36.044Z,97473.16
2022-11-28T18:02:07.158Z,97484.28
2022-11-28T18:04:39.105Z,97479.97
2022-11-28T18:07:09.915Z,97472.22
2022-11-28T18:09:40.960Z,97471.28
2022-11-28T18:12:08.048Z,97472.22
2022-11-28T18:14:39.513Z,97473.06
2022-11-28T18:17:07.650Z,97471.28
2022-11-28T18:19:34.856Z,97465.22
2022-11-28T18:22:01.628Z,97460.06
2022-11-28T18:24:28.353Z,97462.63
2022-11-28T18:26:55.065Z,97462.53
2022-11-28T18:29:21.970Z,97457.38
2022-11-28T18:31:48.797Z,97454.91
2022-11-28T18:34:16.621Z,97451.59
2022-11-28T18:36:43.715Z,97459.13
2022-11-28T18:39:14.946Z,97460.88
2022-11-28T18:41:41.951Z,97469.66
2022-11-28T18:44:11.084Z,97466.13
2022-11-28T18:46:39.351Z,97467.88
2022-11-28T18:49:06.140Z,97465.22
2022-11-28T18:51:35.502Z,97472.13
2022-11-28T18:54:05.449Z,97465.22
2022-11-28T18:56:32.376Z,97470.38
2022-11-28T18:58:59.333Z,97467.06
2022-11-28T19:01:30.537Z,97473.88
2022-11-28T19:04:08.696Z,97472.94
2022-11-28T19:06:39.149Z,97476.25
2022-11-28T19:09:09.755Z,97479.66
2022-11-28T19:11:36.800Z,97482.16
2022-11-28T19:14:06.524Z,97481.41
2022-11-28T19:16:37.550Z,97478.84
2022-11-28T19:19:06.274Z,97478.84
2022-11-28T19:21:35.471Z,97469.34
2022-11-28T19:24:03.199Z,97475.44
2022-11-28T19:26:33.783Z,97472.94
2022-11-28T19:29:02.078Z,97472.94
2022-11-28T19:31:32.625Z,97473.78
2022-11-28T19:34:03.619Z,97458.41
2022-11-28T19:36:40.923Z,97475.72
2022-11-28T19:39:12.403Z,97476.66
2022-11-28T19:41:39.201Z,97479.31
2022-11-28T19:44:06.226Z,97478.50
2022-11-28T19:46:35.686Z,97479.31
2022-11-28T19:49:07.623Z,97474.06
2022-11-28T19:51:35.339Z,97472.41
2022-11-28T19:54:03.969Z,97477.56
2022-11-28T19:56:32.453Z,97481.72
2022-11-28T19:58:59.999Z,97481.59
2022-11-28T20:01:27.903Z,97482.53
2022-11-28T20:03:54.964Z,97476.34
2022-11-28T20:06:26.465Z,97483.38
2022-11-28T20:08:55.345Z,97491.94
2022-11-28T20:11:28.949Z,97493.69
2022-11-28T20:14:04.016Z,97494.50
2022-11-28T20:16:32.561Z,97500.50
2022-11-28T20:19:01.319Z,97495.44
2022-11-28T20:21:29.340Z,97507.41
2022-11-28T20:24:05.231Z,97519.56
2022-11-28T20:26:38.253Z,97519.75
2022-11-28T20:29:06.823Z,97510.34
2022-11-28T20:31:41.786Z,97520.38
2022-11-28T20:34:08.802Z,97514.31
2022-11-28T20:36:36.339Z,97516.78
2022-11-28T20:39:05.402Z,97517.72
2022-11-28T20:41:32.553Z,97529.88
2022-11-28T20:44:00.883Z,97528.31
2022-11-28T20:46:31.572Z,97519.75
2022-11-28T20:49:01.976Z,97534.38
2022-11-28T20:51:32.566Z,97534.38
2022-11-28T20:54:00.914Z,97528.22
2022-11-28T20:56:31.662Z,97531.53
2022-11-28T20:59:00.611Z,97532.44
2022-11-28T21:01:33.213Z,97529.78
2022-11-28T21:04:05.870Z,97522.97
2022-11-28T21:06:35.139Z,97519.56
2022-11-28T21:09:03.755Z,97528.94
2022-11-28T21:11:55.671Z,97535.03
2022-11-28T21:14:19.201Z,97534.94
2022-11-28T21:16:46.409Z,97536.69
2022-11-28T21:19:13.488Z,97537.59
2022-11-28T21:21:40.930Z,97525.63
2022-11-28T21:24:12.730Z,97537.59
2022-11-28T21:26:46.373Z,97542.75
2022-11-28T21:29:17.061Z,97538.63
2022-11-28T21:31:46.456Z,97533.56
2022-11-28T21:34:15.526Z,97541.28
2022-11-28T21:36:43.083Z,97534.44
2022-11-28T21:39:19.706Z,97537.78
2022-11-28T21:41:47.109Z,97550.69
2022-11-28T21:44:13.995Z,97542.19
2022-11-28T21:46:40.855Z,97530.97
2022-11-28T21:49:07.915Z,97540.38
2022-11-28T21:51:34.728Z,97542.13
2022-11-28T21:54:02.310Z,97546.44
2022-11-28T21:56:29.131Z,97537.84
2022-11-28T21:58:56.242Z,97526.72
2022-11-28T22:01:23.090Z,97535.22
2022-11-28T22:03:50.278Z,97535.22
2022-11-28T22:06:24.012Z,97540.44
2022-11-28T22:08:52.348Z,97527.63
2022-11-28T22:11:21.318Z,97537.94
2022-11-28T22:13:49.159Z,97537.94
2022-11-28T22:16:28.357Z,97534.63
2022-11-28T22:18:59.486Z,97538.13
2022-11-28T22:24:13.867Z,97534.81
2022-11-28T22:26:40.743Z,97534.19
2022-11-28T22:29:07.722Z,97539.34
2022-11-28T22:31:36.136Z,97540.19
2022-11-28T22:34:03.066Z,97537.78
2022-11-28T22:36:31.255Z,97538.69
2022-11-28T22:38:58.505Z,97538.69
2022-11-28T22:41:29.292Z,97539.69
2022-11-28T22:44:00.199Z,97544.00
2022-11-28T22:46:27.180Z,97542.34
2022-11-28T22:48:54.041Z,97532.88
2022-11-28T22:51:25.044Z,97539.69
2022-11-28T22:53:58.305Z,97532.97
2022-11-28T22:56:25.949Z,97528.47
2022-11-28T22:58:52.906Z,97540.50
2022-11-28T23:01:27.457Z,97534.63
2022-11-28T23:03:55.597Z,97532.97
2022-11-28T23:06:26.354Z,97535.56
2022-11-28T23:08:54.345Z,97539.06
2022-11-28T23:11:24.809Z,97541.44
2022-11-28T23:13:52.812Z,97538.97
2022-11-28T23:16:28.941Z,97539.88
2022-11-28T23:19:03.587Z,97543.28
2022-11-28T23:21:34.233Z,97538.22
2022-11-28T23:24:01.379Z,97532.44
2022-11-28T23:26:31.081Z,97536.75
2022-11-28T23:29:03.512Z,97530.84
2022-11-28T23:31:33.603Z,97538.56
2022-11-28T23:34:02.618Z,97537.72
2022-11-28T23:36:40.068Z,97536.06
2022-11-28T23:39:21.890Z,97526.78
2022-11-28T23:41:50.287Z,97532.94
2022-11-28T23:44:19.519Z,97526.97
2022-11-28T23:46:48.243Z,97526.34
2022-11-28T23:49:15.718Z,97519.34
2022-11-28T23:51:42.877Z,97518.50
2022-11-28T23:54:11.258Z,97521.09
2022-11-28T23:56:41.464Z,97517.69
2022-11-28T23:59:11.576Z,97516.84
